createdAt,value
2022-10-28T00:01:25.475Z,101215.31
2022-10-28T00:04:32.947Z,101213.09
2022-10-28T00:07:01.171Z,101217.69
2022-10-28T00:09:29.485Z,101209.47
2022-10-28T00:11:58.251Z,101205.75
2022-10-28T00:14:27.230Z,101205.38
2022-10-28T00:16:55.707Z,101215.00
2022-10-28T00:19:23.910Z,101211.84
2022-10-28T00:21:53.595Z,101218.53
2022-10-28T00:24:23.032Z,101214.81
2022-10-28T00:26:51.285Z,101220.19
2022-10-28T00:29:20.810Z,101222.97
2022-10-28T00:31:49.166Z,101226.31
2022-10-28T00:34:21.267Z,101237.47
2022-10-28T00:36:49.978Z,101233.81
2022-10-28T00:39:21.580Z,101243.66
2022-10-28T00:41:52.379Z,101238.31
2022-10-28T00:44:44.830Z,101229.38
2022-10-28T00:47:19.238Z,101233.84
2022-10-28T00:49:49.980Z,101227.94
2022-10-28T00:52:22.379Z,101219.59
2022-10-28T00:54:53.382Z,101217.19
2022-10-28T00:57:27.127Z,101217.56
2022-10-28T00:59:56.325Z,101216.84
2022-10-28T01:02:24.729Z,101225.78
2022-10-28T01:04:53.227Z,101216.16
2022-10-28T01:07:23.401Z,101209.84
2022-10-28T01:09:53.320Z,101203.34
2022-10-28T01:12:31.703Z,101202.59
2022-10-28T01:15:10.410Z,101198.53
2022-10-28T01:17:53.935Z,101207.25
2022-10-28T01:21:07.554Z,101200.41
2022-10-28T01:23:49.473Z,101199.47
2022-10-28T01:29:45.343Z,101205.44
2022-10-28T01:32:26.710Z,101191.69
2022-10-28T01:35:07.277Z,101191.31
2022-10-28T01:37:41.512Z,101187.97
2022-10-28T01:40:13.911Z,101197.81
2022-10-28T01:42:46.738Z,101199.84
2022-10-28T01:45:19.895Z,101203.94
2022-10-28T01:47:58.185Z,101205.41
2022-10-28T01:50:32.124Z,101199.28
2022-10-28T01:53:07.923Z,101194.66
2022-10-28T01:55:40.094Z,101207.09
2022-10-28T01:58:12.962Z,101206.91
2022-10-28T02:00:42.549Z,101205.78
2022-10-28T02:03:12.491Z,101191.84
2022-10-28T02:05:44.457Z,101192.59
2022-10-28T02:08:45.463Z,101187.22
2022-10-28T02:11:27.009Z,101184.44
2022-10-28T02:14:02.640Z,101177.38
2022-10-28T02:16:40.677Z,101173.84
2022-10-28T02:19:18.871Z,101167.53
2022-10-28T02:21:58.078Z,101170.16
2022-10-28T02:24:39.927Z,101163.66
2022-10-28T02:27:16.821Z,101169.38
2022-10-28T02:29:52.350Z,101169.56
2022-10-28T02:32:26.005Z,101169.56
2022-10-28T02:34:59.346Z,101167.91
2022-10-28T02:37:32.492Z,101163.44
2022-10-28T02:40:05.061Z,101168.09
2022-10-28T02:42:38.862Z,101161.22
2022-10-28T02:45:16.932Z,101169.22
2022-10-28T02:47:51.192Z,101156.94
2022-10-28T02:50:26.379Z,101154.16
2022-10-28T02:52:58.284Z,101154.16
2022-10-28T02:55:33.620Z,101143.22
2022-10-28T02:58:02.245Z,101141.72
2022-10-28T03:00:31.752Z,101135.03
2022-10-28T03:03:00.442Z,101133.38
2022-10-28T03:05:30.436Z,101128.34
2022-10-28T03:07:58.743Z,101128.34
2022-10-28T03:10:26.883Z,101124.50
2022-10-28T03:12:55.518Z,101124.31
2022-10-28T03:15:23.739Z,101123.72
2022-10-28T03:17:52.239Z,101128.56
2022-10-28T03:20:20.785Z,101127.09
2022-10-28T03:22:51.056Z,101117.22
2022-10-28T03:25:19.581Z,101119.28
2022-10-28T03:27:48.132Z,101111.09
2022-10-28T03:30:18.393Z,101116.88
2022-10-28T03:32:46.695Z,101117.78
2022-10-28T03:35:14.892Z,101103.28
2022-10-28T03:37:43.744Z,101092.91
2022-10-28T03:40:14.527Z,101094.38
2022-10-28T03:42:42.935Z,101085.47
2022-10-28T03:45:12.193Z,101083.59
2022-10-28T03:47:41.181Z,101083.94
2022-10-28T03:50:09.968Z,101084.13
2022-10-28T03:52:38.568Z,101085.06
2022-10-28T03:55:07.764Z,101092.31
2022-10-28T03:57:37.693Z,101089.13
2022-10-28T04:00:07.563Z,101088.72
2022-10-28T04:02:42.486Z,101098.38
2022-10-28T04:05:10.917Z,101106.56
2022-10-28T04:07:39.243Z,101113.63
2022-10-28T04:10:08.155Z,101119.53
2022-10-28T04:12:39.185Z,101117.66
2022-10-28T04:15:08.377Z,101121.41
2022-10-28T04:17:38.061Z,101127.72
2022-10-28T04:20:07.518Z,101144.25
2022-10-28T04:22:36.056Z,101142.22
2022-10-28T04:25:04.761Z,101145.00
2022-10-28T04:27:32.924Z,101150.00
2022-10-28T04:30:04.365Z,101147.59
2022-10-28T04:32:32.808Z,101146.66
2022-10-28T04:35:00.983Z,101143.72
2022-10-28T04:37:29.500Z,101144.06
2022-10-28T04:39:57.854Z,101143.91
2022-10-28T04:42:26.673Z,101146.50
2022-10-28T04:44:54.855Z,101148.00
2022-10-28T04:47:24.689Z,101152.06
2022-10-28T04:49:55.026Z,101156.69
2022-10-28T04:52:23.363Z,101151.16
2022-10-28T04:54:51.812Z,101162.13
2022-10-28T04:57:20.354Z,101158.94
2022-10-28T04:59:49.491Z,101158.41
2022-10-28T05:02:20.787Z,101154.34
2022-10-28T05:04:50.830Z,101151.00
2022-10-28T05:07:22.714Z,101148.03
2022-10-28T05:09:52.163Z,101148.97
2022-10-28T05:12:20.534Z,101143.78
2022-10-28T05:14:51.179Z,101130.06
2022-10-28T05:17:21.670Z,101137.66
2022-10-28T05:19:51.608Z,101139.16
2022-10-28T05:22:20.219Z,101133.41
2022-10-28T05:24:48.524Z,101122.81
2022-10-28T05:27:17.457Z,101133.78
2022-10-28T05:29:45.909Z,101119.13
2022-10-28T05:32:14.706Z,101124.50
2022-10-28T05:34:43.117Z,101124.13
2022-10-28T05:37:14.133Z,101120.41
2022-10-28T05:39:42.848Z,101125.97
2022-10-28T05:42:12.891Z,101117.09
2022-10-28T05:44:41.447Z,101113.38
2022-10-28T05:47:10.856Z,101107.03
2022-10-28T05:49:39.378Z,101117.44
2022-10-28T05:52:07.641Z,101119.28
2022-10-28T05:54:38.095Z,101118.94
2022-10-28T05:57:06.812Z,101106.50
2022-10-28T05:59:35.822Z,101116.16
2022-10-28T06:02:04.835Z,101107.06
2022-10-28T06:04:33.452Z,101104.66
2022-10-28T06:07:02.067Z,101092.03
2022-10-28T06:09:30.556Z,101093.91
2022-10-28T06:12:01.772Z,101085.16
2022-10-28T06:14:30.733Z,101090.38
2022-10-28T06:16:59.387Z,101099.44
2022-10-28T06:19:27.575Z,101104.09
2022-10-28T06:21:55.753Z,101111.88
2022-10-28T06:24:24.290Z,101114.84
2022-10-28T06:26:53.765Z,101112.44
2022-10-28T06:29:24.480Z,101116.28
2022-10-28T06:31:52.906Z,101116.13
2022-10-28T06:34:23.670Z,101117.97
2022-10-28T06:36:53.079Z,101113.50
2022-10-28T06:39:21.392Z,101117.00
2022-10-28T06:41:50.075Z,101126.66
2022-10-28T06:44:18.452Z,101118.09
2022-10-28T06:46:49.975Z,101122.94
2022-10-28T06:49:18.361Z,101122.00
2022-10-28T06:51:46.605Z,101118.06
2022-10-28T06:54:14.780Z,101121.41
2022-10-28T06:56:45.165Z,101124.00
2022-10-28T06:59:13.899Z,101135.88
2022-10-28T07:01:42.736Z,101133.22
2022-10-28T07:04:14.206Z,101126.50
2022-10-28T07:06:42.896Z,101132.97
2022-10-28T07:09:14.193Z,101134.59
2022-10-28T07:11:43.608Z,101133.41
2022-10-28T07:14:12.168Z,101131.50
2022-10-28T07:16:41.664Z,101135.88
2022-10-28T07:19:11.386Z,101138.66
2022-10-28T07:21:41.447Z,101133.56
2022-10-28T07:24:10.101Z,101135.38
2022-10-28T07:26:39.751Z,101143.16
2022-10-28T07:29:08.059Z,101141.63
2022-10-28T07:31:36.909Z,101138.78
2022-10-28T07:34:05.322Z,101149.88
2022-10-28T07:36:33.644Z,101159.50
2022-10-28T07:39:03.930Z,101163.22
2022-10-28T07:41:32.117Z,101164.28
2022-10-28T07:44:00.470Z,101168.75
2022-10-28T07:46:29.113Z,101171.69
2022-10-28T07:48:57.582Z,101162.19
2022-10-28T07:51:25.951Z,101172.53
2022-10-28T07:53:56.234Z,101174.09
2022-10-28T07:56:26.395Z,101169.75
2022-10-28T07:58:56.251Z,101172.78
2022-10-28T08:01:24.957Z,101171.06
2022-10-28T08:03:53.651Z,101171.50
2022-10-28T08:06:22.661Z,101175.66
2022-10-28T08:09:00.373Z,101179.13
2022-10-28T08:11:35.952Z,101184.78
2022-10-28T08:14:04.414Z,101187.81
2022-10-28T08:16:32.753Z,101183.72
2022-10-28T08:19:02.935Z,101181.22
2022-10-28T08:21:35.412Z,101180.25
2022-10-28T08:24:04.109Z,101171.09
2022-10-28T08:26:41.556Z,101170.69
2022-10-28T08:29:12.124Z,101165.22
2022-10-28T08:31:41.169Z,101166.75
2022-10-28T08:34:09.785Z,101168.03
2022-10-28T08:36:39.927Z,101170.31
2022-10-28T08:39:09.841Z,101176.28
2022-10-28T08:41:45.628Z,101158.56
2022-10-28T08:44:47.911Z,101165.94
2022-10-28T08:47:30.500Z,101165.34
2022-10-28T08:50:03.533Z,101167.28
2022-10-28T08:52:38.150Z,101163.53
2022-10-28T08:55:13.691Z,101159.97
2022-10-28T08:57:47.765Z,101154.91
2022-10-28T09:00:27.409Z,101153.53
2022-10-28T09:03:18.030Z,101158.13
2022-10-28T09:05:49.964Z,101156.16
2022-10-28T09:08:24.389Z,101159.19
2022-10-28T09:11:05.242Z,101164.38
2022-10-28T09:13:48.527Z,101164.09
2022-10-28T09:16:26.690Z,101161.84
2022-10-28T09:18:57.353Z,101170.81
2022-10-28T09:21:32.067Z,101157.81
2022-10-28T09:24:04.304Z,101158.97
2022-10-28T09:26:50.794Z,101159.97
2022-10-28T09:29:41.845Z,101165.34
2022-10-28T09:32:21.457Z,101156.47
2022-10-28T09:34:55.917Z,101160.50
2022-10-28T09:37:29.543Z,101162.06
2022-10-28T09:40:03.646Z,101154.41
2022-10-28T09:45:20.688Z,101152.94
2022-10-28T09:47:56.724Z,101158.59
2022-10-28T09:50:29.687Z,101156.28
2022-10-28T09:53:04.596Z,101162.28
2022-10-28T09:55:33.801Z,101160.22
2022-10-28T09:58:05.349Z,101155.78
2022-10-28T10:00:35.037Z,101171.34
2022-10-28T10:03:03.944Z,101170.31
2022-10-28T10:05:34.561Z,101170.25
2022-10-28T10:08:05.612Z,101176.28
2022-10-28T10:10:44.666Z,101167.41
2022-10-28T10:13:16.598Z,101172.06
2022-10-28T10:15:52.998Z,101177.78
2022-10-28T10:18:33.330Z,101163.69
2022-10-28T10:21:02.666Z,101167.38
2022-10-28T10:23:33.394Z,101172.28
2022-10-28T10:26:06.882Z,101166.19
2022-10-28T10:28:43.895Z,101174.94
2022-10-28T10:31:21.484Z,101170.56
2022-10-28T10:33:54.582Z,101169.50
2022-10-28T10:36:28.478Z,101174.91
2022-10-28T10:38:59.229Z,101167.19
2022-10-28T10:41:40.081Z,101161.06
2022-10-28T10:44:59.717Z,101157.25
2022-10-28T10:57:17.926Z,101159.81
2022-10-28T11:00:17.442Z,101153.78
2022-10-28T11:02:52.234Z,101150.56
2022-10-28T11:06:57.077Z,101145.16
2022-10-28T11:10:44.107Z,101138.63
2022-10-28T11:17:22.535Z,101130.25
2022-10-28T11:21:00.368Z,101130.91
2022-10-28T11:28:20.956Z,101134.59
2022-10-28T11:31:49.012Z,101130.31
2022-10-28T11:36:34.412Z,101115.97
2022-10-28T11:39:59.199Z,101121.00
2022-10-28T11:42:58.986Z,101120.59
2022-10-28T11:45:48.649Z,101112.84
2022-10-28T11:49:50.219Z,101106.69
2022-10-28T11:53:43.048Z,101104.75
2022-10-28T11:57:35.842Z,101095.53
2022-10-28T12:00:30.628Z,101098.06
2022-10-28T12:03:20.768Z,101079.78
2022-10-28T12:05:54.642Z,101092.84
2022-10-28T12:08:35.581Z,101088.06
2022-10-28T12:11:27.522Z,101086.38
2022-10-28T12:14:11.430Z,101079.50
2022-10-28T12:16:44.969Z,101072.34
2022-10-28T12:19:22.301Z,101061.69
2022-10-28T12:22:00.220Z,101062.31
2022-10-28T12:24:31.993Z,101070.91
2022-10-28T12:27:05.843Z,101059.06
2022-10-28T12:29:41.003Z,101058.81
2022-10-28T12:32:22.940Z,101052.47
2022-10-28T12:35:00.331Z,101057.75
2022-10-28T12:37:34.870Z,101057.75
2022-10-28T12:40:13.685Z,101050.19
2022-10-28T12:42:48.968Z,101057.94
2022-10-28T12:45:20.813Z,101048.84
2022-10-28T12:47:56.535Z,101048.63
2022-10-28T12:50:33.628Z,101044.09
2022-10-28T12:53:21.224Z,101047.78
2022-10-28T12:55:57.286Z,101036.16
2022-10-28T12:58:32.716Z,101040.03
2022-10-28T13:01:04.045Z,101035.44
2022-10-28T13:03:32.994Z,101023.09
2022-10-28T13:09:39.622Z,101026.09
2022-10-28T13:12:47.140Z,101024.25
2022-10-28T13:15:43.480Z,101022.56
2022-10-28T13:18:48.676Z,101019.81
2022-10-28T13:21:30.359Z,101031.56
2022-10-28T13:24:12.037Z,101039.84
2022-10-28T13:26:44.521Z,101033.53
2022-10-28T13:29:24.483Z,101029.34
2022-10-28T13:31:54.926Z,101028.19
2022-10-28T13:34:33.165Z,101019.31
2022-10-28T13:37:04.491Z,101021.53
2022-10-28T13:39:51.316Z,101019.25
2022-10-28T13:42:45.746Z,101022.97
2022-10-28T13:45:48.020Z,101022.66
2022-10-28T13:48:56.428Z,101026.00
2022-10-28T13:51:45.614Z,101020.66
2022-10-28T13:54:34.341Z,101020.66
2022-10-28T13:57:09.729Z,101014.78
2022-10-28T13:59:51.108Z,101013.78
2022-10-28T14:02:40.924Z,101013.16
2022-10-28T14:05:11.845Z,101010.22
2022-10-28T14:07:52.928Z,101016.78
2022-10-28T14:10:26.789Z,101008.00
2022-10-28T14:12:58.966Z,101012.38
2022-10-28T14:15:32.477Z,101018.16
2022-10-28T14:18:22.713Z,101013.88
2022-10-28T14:21:01.064Z,101027.56
2022-10-28T14:24:03.570Z,101028.72
2022-10-28T14:26:33.549Z,101023.28
2022-10-28T14:29:02.300Z,101031.03
2022-10-28T14:31:45.142Z,101030.91
2022-10-28T14:34:43.437Z,101035.00
2022-10-28T14:37:35.959Z,101036.34
2022-10-28T14:40:20.776Z,101042.88
2022-10-28T14:43:04.699Z,101036.59
2022-10-28T14:45:41.759Z,101032.34
2022-10-28T14:48:28.812Z,101027.44
2022-10-28T14:50:59.696Z,101021.09
2022-10-28T14:53:35.565Z,101021.63
2022-10-28T14:56:07.806Z,101016.16
2022-10-28T14:58:44.353Z,101008.72
2022-10-28T15:01:24.429Z,101013.84
2022-10-28T15:03:56.175Z,101013.13
2022-10-28T15:06:36.246Z,101017.19
2022-10-28T15:09:06.692Z,101016.22
2022-10-28T15:11:35.630Z,101016.72
2022-10-28T15:14:25.917Z,101012.22
2022-10-28T15:16:55.282Z,101024.97
2022-10-28T15:19:27.363Z,101029.22
2022-10-28T15:22:03.697Z,101018.19
2022-10-28T15:24:32.326Z,101025.44
2022-10-28T15:27:01.185Z,101025.88
2022-10-28T15:29:33.895Z,101015.34
2022-10-28T15:32:16.276Z,101021.75
2022-10-28T15:34:47.129Z,101024.81
2022-10-28T15:37:19.120Z,101017.84
2022-10-28T15:39:58.650Z,101019.47
2022-10-28T15:42:42.497Z,101026.34
2022-10-28T15:45:20.791Z,101019.63
2022-10-28T15:47:50.853Z,101015.69
2022-10-28T15:50:38.667Z,101023.66
2022-10-28T15:53:34.504Z,101025.50
2022-10-28T15:56:25.124Z,101027.19
2022-10-28T15:59:09.273Z,101037.47
2022-10-28T16:01:56.392Z,101032.19
2022-10-28T16:04:43.978Z,101034.78
2022-10-28T16:07:12.680Z,101033.78
2022-10-28T16:09:47.212Z,101038.88
2022-10-28T16:12:18.700Z,101045.59
2022-10-28T16:14:50.827Z,101048.53
2022-10-28T16:17:27.321Z,101035.31
2022-10-28T16:19:58.239Z,101036.13
2022-10-28T16:22:31.148Z,101040.41
2022-10-28T16:24:59.378Z,101043.06
2022-10-28T16:27:29.095Z,101038.97
2022-10-28T16:29:58.204Z,101043.94
2022-10-28T16:32:32.715Z,101046.22
2022-10-28T16:35:15.030Z,101043.59
2022-10-28T16:37:47.368Z,101058.47
2022-10-28T16:40:45.781Z,101068.41
2022-10-28T16:43:07.617Z,101061.53
2022-10-28T16:45:42.333Z,101065.25
2022-10-28T16:48:16.465Z,101065.47
2022-10-28T16:50:52.945Z,101069.91
2022-10-28T16:53:21.479Z,101076.00
2022-10-28T16:55:51.080Z,101075.56
2022-10-28T16:58:23.171Z,101069.41
2022-10-28T17:00:54.976Z,101069.75
2022-10-28T17:03:24.675Z,101063.97
2022-10-28T17:06:00.586Z,101058.09
2022-10-28T17:08:56.555Z,101066.50
2022-10-28T17:11:17.062Z,101063.84
2022-10-28T17:13:45.333Z,101076.09
2022-10-28T17:16:15.257Z,101063.81
2022-10-28T17:18:46.687Z,101069.41
2022-10-28T17:21:16.125Z,101065.72
2022-10-28T17:23:44.955Z,101067.66
2022-10-28T17:26:15.147Z,101067.19
2022-10-28T17:28:52.407Z,101071.94
2022-10-28T17:31:24.869Z,101079.00
2022-10-28T17:33:55.882Z,101079.28
2022-10-28T17:36:24.464Z,101075.94
2022-10-28T17:38:53.092Z,101080.81
2022-10-28T17:41:21.576Z,101080.69
2022-10-28T17:43:58.340Z,101085.88
2022-10-28T17:46:26.702Z,101085.44
2022-10-28T17:48:56.633Z,101085.91
2022-10-28T17:51:25.162Z,101091.06
2022-10-28T17:53:55.674Z,101099.34
2022-10-28T17:56:24.497Z,101098.91
2022-10-28T17:58:53.766Z,101112.38
2022-10-28T18:01:22.222Z,101101.59
2022-10-28T18:03:50.700Z,101108.56
2022-10-28T18:06:21.425Z,101096.59
2022-10-28T18:11:20.933Z,101106.94
2022-10-28T18:13:52.801Z,101112.69
2022-10-28T18:16:24.373Z,101108.38
2022-10-28T18:18:55.369Z,101110.25
2022-10-28T18:21:25.531Z,101117.19
2022-10-28T18:23:54.696Z,101115.97
2022-10-28T18:26:24.296Z,101117.59
2022-10-28T18:28:52.430Z,101121.25
2022-10-28T18:31:23.409Z,101121.09
2022-10-28T18:33:51.925Z,101124.59
2022-10-28T18:36:23.913Z,101121.19
2022-10-28T18:38:54.060Z,101123.94
2022-10-28T18:41:25.752Z,101128.34
2022-10-28T18:43:55.111Z,101118.31
2022-10-28T18:46:24.019Z,101128.00
2022-10-28T18:48:53.597Z,101129.81
2022-10-28T18:51:22.179Z,101124.53
2022-10-28T18:53:51.457Z,101128.94
2022-10-28T18:56:23.375Z,101129.28
2022-10-28T18:58:52.606Z,101124.41
2022-10-28T19:01:22.082Z,101121.03
2022-10-28T19:03:53.837Z,101130.91
2022-10-28T19:06:23.062Z,101127.38
2022-10-28T19:08:54.010Z,101126.47
2022-10-28T19:11:25.690Z,101122.38
2022-10-28T19:13:53.938Z,101122.22
2022-10-28T19:16:22.309Z,101126.31
2022-10-28T19:18:50.961Z,101125.41
2022-10-28T19:21:19.214Z,101128.66
2022-10-28T19:23:47.455Z,101127.88
2022-10-28T19:26:16.370Z,101126.31
2022-10-28T19:28:48.040Z,101136.16
2022-10-28T19:31:18.276Z,101139.59
2022-10-28T19:33:46.449Z,101129.09
2022-10-28T19:36:22.880Z,101132.56
2022-10-28T19:38:53.973Z,101128.94
2022-10-28T19:41:24.492Z,101128.47
2022-10-28T19:43:58.419Z,101135.06
2022-10-28T19:46:29.406Z,101137.53
2022-10-28T19:48:59.137Z,101141.66
2022-10-28T19:51:29.840Z,101141.31
2022-10-28T19:54:00.727Z,101159.25
2022-10-28T19:56:30.795Z,101159.81
2022-10-28T19:59:02.590Z,101161.69
2022-10-28T20:01:32.777Z,101152.31
2022-10-28T20:04:01.697Z,101156.25
2022-10-28T20:06:33.247Z,101158.56
2022-10-28T20:09:01.574Z,101156.16
2022-10-28T20:11:32.890Z,101150.81
2022-10-28T20:14:04.775Z,101151.06
2022-10-28T20:16:35.139Z,101155.41
2022-10-28T20:19:04.838Z,101160.81
2022-10-28T20:21:34.736Z,101163.25
2022-10-28T20:24:07.195Z,101157.19
2022-10-28T20:26:38.860Z,101153.28
2022-10-28T20:29:09.983Z,101156.31
2022-10-28T20:31:39.783Z,101164.34
2022-10-28T20:34:09.141Z,101166.94
2022-10-28T20:36:40.266Z,101171.28
2022-10-28T20:39:12.789Z,101175.06
2022-10-28T20:41:42.666Z,101176.00
2022-10-28T20:44:13.553Z,101179.94
2022-10-28T20:46:45.167Z,101180.88
2022-10-28T20:49:14.107Z,101182.75
2022-10-28T20:51:43.761Z,101182.81
2022-10-28T20:54:12.071Z,101177.06
2022-10-28T20:56:42.474Z,101183.78
2022-10-28T20:59:12.445Z,101182.84
2022-10-28T21:01:42.188Z,101182.13
2022-10-28T21:04:12.757Z,101180.44
2022-10-28T21:06:41.350Z,101184.00
2022-10-28T21:09:11.613Z,101181.94
2022-10-28T21:11:40.204Z,101181.22
2022-10-28T21:14:09.802Z,101187.75
2022-10-28T21:16:40.799Z,101186.06
2022-10-28T21:19:09.629Z,101184.41
2022-10-28T21:21:38.151Z,101186.47
2022-10-28T21:24:07.541Z,101190.53
2022-10-28T21:26:35.994Z,101195.78
2022-10-28T21:29:04.720Z,101192.81
2022-10-28T21:31:33.189Z,101200.44
2022-10-28T21:34:05.860Z,101202.31
2022-10-28T21:36:37.207Z,101206.38
2022-10-28T21:39:05.597Z,101204.75
2022-10-28T21:41:33.959Z,101199.56
2022-10-28T21:44:05.867Z,101201.97
2022-10-28T21:46:36.017Z,101209.59
2022-10-28T21:49:06.053Z,101207.19
2022-10-28T21:51:34.949Z,101212.41
2022-10-28T21:54:03.278Z,101205.00
2022-10-28T21:56:33.765Z,101201.63
2022-10-28T21:59:02.618Z,101197.94
2022-10-28T22:01:32.575Z,101210.41
2022-10-28T22:04:01.945Z,101203.16
2022-10-28T22:06:34.278Z,101201.66
2022-10-28T22:09:04.743Z,101214.88
2022-10-28T22:11:34.226Z,101207.06
2022-10-28T22:14:05.629Z,101210.97
2022-10-28T22:16:39.807Z,101218.97
2022-10-28T22:19:10.072Z,101217.88
2022-10-28T22:21:42.246Z,101211.34
2022-10-28T22:24:11.837Z,101219.88
2022-10-28T22:26:41.095Z,101219.34
2022-10-28T22:29:09.570Z,101224.00
2022-10-28T22:31:38.068Z,101227.13
2022-10-28T22:34:07.358Z,101229.56
2022-10-28T22:36:35.678Z,101229.56
2022-10-28T22:39:05.706Z,101220.09
2022-10-28T22:41:34.838Z,101223.44
2022-10-28T22:44:04.875Z,101223.06
2022-10-28T22:46:36.789Z,101214.53
2022-10-28T22:49:05.627Z,101215.81
2022-10-28T22:51:34.466Z,101207.09
2022-10-28T22:54:03.467Z,101202.09
2022-10-28T22:56:33.018Z,101205.44
2022-10-28T22:59:03.158Z,101195.41
2022-10-28T23:01:31.885Z,101193.38
2022-10-28T23:04:01.148Z,101187.25
2022-10-28T23:06:30.100Z,101191.31
2022-10-28T23:08:58.698Z,101192.63
2022-10-28T23:11:27.521Z,101199.84
2022-10-28T23:13:57.629Z,101202.84
2022-10-28T23:16:27.083Z,101204.16
2022-10-28T23:18:55.960Z,101211.38
2022-10-28T23:21:25.913Z,101205.81
2022-10-28T23:23:55.246Z,101208.59
2022-10-28T23:26:24.390Z,101194.47
2022-10-28T23:28:55.747Z,101185.19
2022-10-28T23:31:26.375Z,101183.13
2022-10-28T23:33:55.967Z,101187.19
2022-10-28T23:36:25.480Z,101192.19
2022-10-28T23:38:53.912Z,101202.44
2022-10-28T23:41:23.142Z,101201.69
2022-10-28T23:43:51.236Z,101198.69
2022-10-28T23:46:21.593Z,101200.16
2022-10-28T23:48:51.334Z,101194.94
2022-10-28T23:51:20.575Z,101194.94
2022-10-28T23:53:50.402Z,101194.50
2022-10-28T23:56:19.301Z,101200.25
2022-10-28T23:58:48.004Z,101201.38
